createdAt,value
2017-12-15T00:00:04.784Z,983.86
2017-12-15T00:00:30.893Z,983.83
2017-12-15T00:00:57.004Z,983.86
2017-12-15T00:01:23.120Z,983.81
2017-12-15T00:01:49.245Z,983.84
2017-12-15T00:02:15.362Z,983.81
2017-12-15T00:02:41.477Z,983.85
2017-12-15T00:03:07.599Z,983.85
2017-12-15T00:03:33.718Z,983.86
2017-12-15T00:03:59.827Z,983.82
2017-12-15T00:04:25.950Z,983.85
2017-12-15T00:04:52.086Z,983.86
2017-12-15T00:05:18.203Z,983.88
2017-12-15T00:05:44.343Z,983.9
2017-12-15T00:06:10.431Z,983.83
2017-12-15T00:06:36.540Z,983.86
2017-12-15T00:07:02.658Z,983.88
2017-12-15T00:07:28.776Z,983.91
2017-12-15T00:07:54.885Z,983.92
2017-12-15T00:08:21.003Z,983.92
2017-12-15T00:08:47.116Z,983.9
2017-12-15T00:09:13.227Z,983.86
2017-12-15T00:09:39.362Z,983.88
2017-12-15T00:10:05.471Z,983.9
2017-12-15T00:10:31.593Z,983.87
2017-12-15T00:10:57.710Z,983.88
2017-12-15T00:11:23.839Z,983.9
2017-12-15T00:11:49.954Z,983.89
2017-12-15T00:12:16.071Z,983.92
2017-12-15T00:12:42.186Z,983.96
2017-12-15T00:13:08.317Z,983.91
2017-12-15T00:13:34.438Z,983.91
2017-12-15T00:14:00.549Z,983.93
2017-12-15T00:14:26.659Z,983.95
2017-12-15T00:14:52.804Z,983.92
2017-12-15T00:15:18.908Z,983.97
2017-12-15T00:15:45.030Z,983.94
2017-12-15T00:16:11.148Z,983.94
2017-12-15T00:16:37.258Z,983.93
2017-12-15T00:17:03.378Z,983.94
2017-12-15T00:17:29.489Z,983.98
2017-12-15T00:17:55.605Z,983.93
2017-12-15T00:18:21.720Z,983.95
2017-12-15T00:18:47.832Z,983.94
2017-12-15T00:19:13.956Z,983.99
2017-12-15T00:19:40.089Z,983.94
2017-12-15T00:20:06.226Z,983.97
2017-12-15T00:20:32.335Z,983.97
2017-12-15T00:20:58.449Z,983.96
2017-12-15T00:21:24.565Z,983.99
2017-12-15T00:21:50.700Z,983.96
2017-12-15T00:22:16.819Z,983.99
2017-12-15T00:22:42.935Z,984.01
2017-12-15T00:23:09.043Z,984
2017-12-15T00:23:35.159Z,984.04
2017-12-15T00:24:01.273Z,984.01
2017-12-15T00:24:27.392Z,984
2017-12-15T00:24:53.508Z,984.03
2017-12-15T00:25:19.624Z,984.02
2017-12-15T00:25:45.743Z,984.07
2017-12-15T00:26:11.851Z,984.06
2017-12-15T00:26:37.965Z,984.04
2017-12-15T00:27:04.076Z,984.08
2017-12-15T00:27:30.194Z,984.05
2017-12-15T00:27:56.305Z,984.06
2017-12-15T00:28:22.446Z,984.05
2017-12-15T00:28:48.553Z,984.03
2017-12-15T00:29:14.684Z,984.01
2017-12-15T00:29:40.803Z,984.03
2017-12-15T00:30:06.921Z,984.01
2017-12-15T00:30:33.055Z,984.01
2017-12-15T00:30:59.166Z,984.02
2017-12-15T00:31:25.284Z,984.04
2017-12-15T00:31:51.400Z,984.04
2017-12-15T00:32:17.512Z,984.02
2017-12-15T00:32:43.628Z,984.04
2017-12-15T00:33:09.739Z,984.06
2017-12-15T00:33:35.857Z,984.04
2017-12-15T00:34:01.965Z,984.02
2017-12-15T00:34:28.076Z,984.07
2017-12-15T00:34:54.195Z,984.02
2017-12-15T00:35:20.307Z,984.04
2017-12-15T00:35:46.421Z,984.04
2017-12-15T00:36:12.537Z,984.04
2017-12-15T00:36:38.653Z,984.06
2017-12-15T00:37:04.770Z,984.04
2017-12-15T00:37:30.881Z,984.06
2017-12-15T00:37:56.994Z,984.07
2017-12-15T00:38:23.133Z,984.04
2017-12-15T00:38:49.250Z,984.05
2017-12-15T00:39:15.360Z,984.06
2017-12-15T00:39:41.480Z,984.05
2017-12-15T00:40:07.587Z,984.06
2017-12-15T00:40:33.705Z,984.01
2017-12-15T00:40:59.814Z,984.05
2017-12-15T00:41:25.930Z,984.01
2017-12-15T00:41:52.063Z,984.02
2017-12-15T00:42:18.200Z,983.99
2017-12-15T00:42:44.315Z,983.98
2017-12-15T00:43:10.434Z,983.96
2017-12-15T00:43:36.547Z,983.99
2017-12-15T00:44:02.685Z,983.97
2017-12-15T00:44:28.797Z,983.97
2017-12-15T00:44:54.909Z,984
2017-12-15T00:45:21.029Z,983.98
2017-12-15T00:45:47.142Z,983.98
2017-12-15T00:46:13.249Z,984.02
2017-12-15T00:46:39.367Z,984
2017-12-15T00:47:05.481Z,984.01
2017-12-15T00:47:31.594Z,984
2017-12-15T00:47:57.713Z,984
2017-12-15T00:48:23.829Z,984.03
2017-12-15T00:48:49.938Z,984
2017-12-15T00:49:16.056Z,984
2017-12-15T00:49:42.171Z,984.01
2017-12-15T00:50:08.292Z,984.01
2017-12-15T00:50:34.398Z,983.99
2017-12-15T00:51:00.509Z,983.99
2017-12-15T00:51:26.631Z,984.02
2017-12-15T00:51:52.765Z,983.99
2017-12-15T00:52:18.888Z,984
2017-12-15T00:52:45.004Z,984.01
2017-12-15T00:53:11.111Z,983.97
2017-12-15T00:53:37.234Z,984
2017-12-15T00:54:03.342Z,984.01
2017-12-15T00:54:29.503Z,984.02
2017-12-15T00:54:55.620Z,984.04
2017-12-15T00:55:21.735Z,984.01
2017-12-15T00:55:47.846Z,984.04
2017-12-15T00:56:13.963Z,984.01
2017-12-15T00:56:40.094Z,984.05
2017-12-15T00:57:06.209Z,984.03
2017-12-15T00:57:32.344Z,984.05
2017-12-15T00:57:58.459Z,984.05
2017-12-15T00:58:24.579Z,984.06
2017-12-15T00:58:50.695Z,984.1
2017-12-15T00:59:16.805Z,984.03
2017-12-15T00:59:42.926Z,984.05
2017-12-15T01:00:09.037Z,984.07
2017-12-15T01:00:35.151Z,984.03
2017-12-15T01:01:01.283Z,984.07
2017-12-15T01:01:27.418Z,984.07
2017-12-15T01:01:53.536Z,984.03
2017-12-15T01:02:19.648Z,984.09
2017-12-15T01:02:45.766Z,984.07
2017-12-15T01:03:11.875Z,984.06
2017-12-15T01:03:37.991Z,984.04
2017-12-15T01:04:04.105Z,984.04
2017-12-15T01:04:30.222Z,984.05
2017-12-15T01:04:56.340Z,984.05
2017-12-15T01:05:22.451Z,984.02
2017-12-15T01:05:48.563Z,984.04
2017-12-15T01:06:14.681Z,984.04
2017-12-15T01:06:40.797Z,984.1
2017-12-15T01:07:06.911Z,984.05
2017-12-15T01:07:33.030Z,984.04
2017-12-15T01:07:59.138Z,984.06
2017-12-15T01:08:25.250Z,984.05
2017-12-15T01:08:51.371Z,984.05
2017-12-15T01:09:17.501Z,984.05
2017-12-15T01:09:43.617Z,984.06
2017-12-15T01:10:09.730Z,984.03
2017-12-15T01:10:35.844Z,984.03
2017-12-15T01:11:01.958Z,984.08
2017-12-15T01:11:28.072Z,984.07
2017-12-15T01:11:54.188Z,984.08
2017-12-15T01:12:20.297Z,984.1
2017-12-15T01:12:46.406Z,984.13
2017-12-15T01:13:12.550Z,984.1
2017-12-15T01:13:38.666Z,984.11
2017-12-15T01:14:04.783Z,984.1
2017-12-15T01:14:30.894Z,984.1
2017-12-15T01:14:57.008Z,984.09
2017-12-15T01:15:23.128Z,984.09
2017-12-15T01:15:49.233Z,984.1
2017-12-15T01:16:15.351Z,984.11
2017-12-15T01:16:41.460Z,984.09
2017-12-15T01:17:07.580Z,984.1
2017-12-15T01:17:33.699Z,984.1
2017-12-15T01:17:59.807Z,984.11
2017-12-15T01:18:25.944Z,984.12
2017-12-15T01:18:52.054Z,984.12
2017-12-15T01:19:18.174Z,984.12
2017-12-15T01:19:44.292Z,984.15
2017-12-15T01:20:10.399Z,984.1
2017-12-15T01:20:36.516Z,984.13
2017-12-15T01:21:02.631Z,984.14
2017-12-15T01:21:28.734Z,984.1
2017-12-15T01:21:54.851Z,984.1
2017-12-15T01:22:20.967Z,984.12
2017-12-15T01:22:47.081Z,984.12
2017-12-15T01:23:13.222Z,984.15
2017-12-15T01:23:39.330Z,984.09
2017-12-15T01:24:05.443Z,984.13
2017-12-15T01:24:31.561Z,984.13
2017-12-15T01:24:57.676Z,984.1
2017-12-15T01:25:23.790Z,984.13
2017-12-15T01:25:49.907Z,984.16
2017-12-15T01:26:16.016Z,984.17
2017-12-15T01:26:42.135Z,984.14
2017-12-15T01:27:08.247Z,984.15
2017-12-15T01:27:34.365Z,984.18
2017-12-15T01:28:00.478Z,984.18
2017-12-15T01:28:26.589Z,984.15
2017-12-15T01:28:52.710Z,984.17
2017-12-15T01:29:18.820Z,984.18
2017-12-15T01:29:44.954Z,984.17
2017-12-15T01:30:11.065Z,984.16
2017-12-15T01:30:37.184Z,984.2
2017-12-15T01:31:03.300Z,984.18
2017-12-15T01:31:29.409Z,984.2
2017-12-15T01:31:55.529Z,984.14
2017-12-15T01:32:21.643Z,984.21
2017-12-15T01:32:47.774Z,984.21
2017-12-15T01:33:13.894Z,984.23
2017-12-15T01:33:40.002Z,984.21
2017-12-15T01:34:06.139Z,984.22
2017-12-15T01:34:32.254Z,984.21
2017-12-15T01:34:58.369Z,984.21
2017-12-15T01:35:24.478Z,984.22
2017-12-15T01:35:50.588Z,984.24
2017-12-15T01:36:16.703Z,984.22
2017-12-15T01:36:42.821Z,984.23
2017-12-15T01:37:08.941Z,984.26
2017-12-15T01:37:35.060Z,984.21
2017-12-15T01:38:01.170Z,984.24
2017-12-15T01:38:27.310Z,984.24
2017-12-15T01:38:53.451Z,984.3
2017-12-15T01:39:19.557Z,984.25
2017-12-15T01:39:45.677Z,984.33
2017-12-15T01:40:11.789Z,984.24
2017-12-15T01:40:37.904Z,984.26
2017-12-15T01:41:04.017Z,984.27
2017-12-15T01:41:30.126Z,984.25
2017-12-15T01:41:56.242Z,984.29
2017-12-15T01:42:22.354Z,984.27
2017-12-15T01:42:48.499Z,984.26
2017-12-15T01:43:14.616Z,984.21
2017-12-15T01:43:40.728Z,984.23
2017-12-15T01:44:06.845Z,984.23
2017-12-15T01:44:32.955Z,984.22
2017-12-15T01:44:59.068Z,984.22
2017-12-15T01:45:25.205Z,984.27
2017-12-15T01:45:51.317Z,984.3
2017-12-15T01:46:17.435Z,984.32
2017-12-15T01:46:43.554Z,984.27
2017-12-15T01:47:09.660Z,984.27
2017-12-15T01:47:35.771Z,984.27
2017-12-15T01:48:01.889Z,984.29
2017-12-15T01:48:27.999Z,984.3
2017-12-15T01:48:54.117Z,984.26
2017-12-15T01:49:20.234Z,984.31
2017-12-15T01:49:46.348Z,984.29
2017-12-15T01:50:12.458Z,984.3
2017-12-15T01:50:38.578Z,984.26
2017-12-15T01:51:04.694Z,984.29
2017-12-15T01:51:30.806Z,984.27
2017-12-15T01:51:56.915Z,984.28
2017-12-15T01:52:23.029Z,984.31
2017-12-15T01:52:49.149Z,984.28
2017-12-15T01:53:15.284Z,984.28
2017-12-15T01:53:41.395Z,984.34
2017-12-15T01:54:07.506Z,984.29
2017-12-15T01:54:33.625Z,984.27
2017-12-15T01:54:59.731Z,984.25
2017-12-15T01:55:25.852Z,984.28
2017-12-15T01:55:51.968Z,984.28
2017-12-15T01:56:18.085Z,984.29
2017-12-15T01:56:44.200Z,984.29
2017-12-15T01:57:10.313Z,984.26
2017-12-15T01:57:36.424Z,984.28
2017-12-15T01:58:02.541Z,984.31
2017-12-15T01:58:28.650Z,984.35
2017-12-15T01:58:54.770Z,984.35
2017-12-15T01:59:20.880Z,984.37
2017-12-15T01:59:46.993Z,984.36
2017-12-15T02:00:13.113Z,984.38
2017-12-15T02:00:39.228Z,984.37
2017-12-15T02:01:05.337Z,984.35
2017-12-15T02:01:31.449Z,984.41
2017-12-15T02:01:57.587Z,984.39
2017-12-15T02:02:23.696Z,984.4
2017-12-15T02:02:49.812Z,984.44
2017-12-15T02:03:15.926Z,984.44
2017-12-15T02:03:42.042Z,984.39
2017-12-15T02:04:08.180Z,984.46
2017-12-15T02:04:34.292Z,984.47
2017-12-15T02:05:00.413Z,984.46
2017-12-15T02:05:26.516Z,984.46
2017-12-15T02:05:52.635Z,984.49
2017-12-15T02:06:18.746Z,984.47
2017-12-15T02:06:44.854Z,984.48
2017-12-15T02:07:10.998Z,984.47
2017-12-15T02:07:37.114Z,984.49
2017-12-15T02:08:03.245Z,984.51
2017-12-15T02:08:29.364Z,984.51
2017-12-15T02:08:55.475Z,984.48
2017-12-15T02:09:21.592Z,984.53
2017-12-15T02:09:47.734Z,984.57
2017-12-15T02:10:13.851Z,984.53
2017-12-15T02:10:39.980Z,984.57
2017-12-15T02:11:06.093Z,984.54
2017-12-15T02:11:32.212Z,984.54
2017-12-15T02:11:58.333Z,984.56
2017-12-15T02:12:24.440Z,984.53
2017-12-15T02:12:50.552Z,984.57
2017-12-15T02:13:16.688Z,984.59
2017-12-15T02:13:42.809Z,984.55
2017-12-15T02:14:08.923Z,984.52
2017-12-15T02:14:35.039Z,984.51
2017-12-15T02:15:01.152Z,984.52
2017-12-15T02:15:27.274Z,984.52
2017-12-15T02:15:53.384Z,984.51
2017-12-15T02:16:19.518Z,984.53
2017-12-15T02:16:45.637Z,984.52
2017-12-15T02:17:11.752Z,984.53
2017-12-15T02:17:37.860Z,984.5
2017-12-15T02:18:03.974Z,984.51
2017-12-15T02:18:30.091Z,984.52
2017-12-15T02:18:56.219Z,984.57
2017-12-15T02:19:22.342Z,984.57
2017-12-15T02:19:48.460Z,984.56
2017-12-15T02:20:14.574Z,984.59
2017-12-15T02:20:40.685Z,984.59
2017-12-15T02:21:06.801Z,984.57
2017-12-15T02:21:32.917Z,984.57
2017-12-15T02:21:59.049Z,984.56
2017-12-15T02:22:25.167Z,984.59
2017-12-15T02:22:51.276Z,984.56
2017-12-15T02:23:17.398Z,984.52
2017-12-15T02:23:43.524Z,984.52
2017-12-15T02:24:09.636Z,984.54
2017-12-15T02:24:35.753Z,984.55
2017-12-15T02:25:01.865Z,984.56
2017-12-15T02:25:27.984Z,984.55
2017-12-15T02:25:54.095Z,984.55
2017-12-15T02:26:20.217Z,984.55
2017-12-15T02:26:46.332Z,984.57
2017-12-15T02:27:12.443Z,984.6
2017-12-15T02:27:38.557Z,984.61
2017-12-15T02:28:04.674Z,984.63
2017-12-15T02:28:30.790Z,984.61
2017-12-15T02:28:56.903Z,984.63
2017-12-15T02:29:23.022Z,984.62
2017-12-15T02:29:49.130Z,984.62
2017-12-15T02:30:15.253Z,984.64
2017-12-15T02:30:41.368Z,984.65
2017-12-15T02:31:07.478Z,984.64
2017-12-15T02:31:33.590Z,984.68
2017-12-15T02:31:59.707Z,984.68
2017-12-15T02:32:25.817Z,984.71
2017-12-15T02:32:51.929Z,984.68
2017-12-15T02:33:18.048Z,984.76
2017-12-15T02:33:44.156Z,984.72
2017-12-15T02:34:10.274Z,984.73
2017-12-15T02:34:36.387Z,984.74
2017-12-15T02:35:02.503Z,984.76
2017-12-15T02:35:28.616Z,984.71
2017-12-15T02:35:54.732Z,984.76
2017-12-15T02:36:20.852Z,984.74
2017-12-15T02:36:46.980Z,984.74
2017-12-15T02:37:13.095Z,984.73
2017-12-15T02:37:39.205Z,984.71
2017-12-15T02:38:05.317Z,984.73
2017-12-15T02:38:31.429Z,984.73
2017-12-15T02:38:57.567Z,984.74
2017-12-15T02:39:23.678Z,984.76
2017-12-15T02:39:49.790Z,984.73
2017-12-15T02:40:15.910Z,984.75
2017-12-15T02:40:42.020Z,984.76
2017-12-15T02:41:08.136Z,984.74
2017-12-15T02:41:34.262Z,984.78
2017-12-15T02:42:00.378Z,984.81
2017-12-15T02:42:26.495Z,984.8
2017-12-15T02:42:52.625Z,984.84
2017-12-15T02:43:18.741Z,984.86
2017-12-15T02:43:44.851Z,984.83
2017-12-15T02:44:10.969Z,984.82
2017-12-15T02:44:37.105Z,984.85
2017-12-15T02:45:03.222Z,984.85
2017-12-15T02:45:29.335Z,984.89
2017-12-15T02:45:55.449Z,984.87
2017-12-15T02:46:21.562Z,984.9
2017-12-15T02:46:47.673Z,984.88
2017-12-15T02:47:13.791Z,984.87
2017-12-15T02:47:39.902Z,984.88
2017-12-15T02:48:06.019Z,984.88
2017-12-15T02:48:32.127Z,984.86
2017-12-15T02:48:58.246Z,984.88
2017-12-15T02:49:24.362Z,984.89
2017-12-15T02:49:50.471Z,984.9
2017-12-15T02:50:16.591Z,984.9
2017-12-15T02:50:42.701Z,984.93
2017-12-15T02:51:08.814Z,984.89
2017-12-15T02:51:34.956Z,984.9
2017-12-15T02:52:01.065Z,984.92
2017-12-15T02:52:27.185Z,984.94
2017-12-15T02:52:53.319Z,984.93
2017-12-15T02:53:19.430Z,984.94
2017-12-15T02:53:45.540Z,984.98
2017-12-15T02:54:11.660Z,984.97
2017-12-15T02:54:37.770Z,984.93
2017-12-15T02:55:03.893Z,984.96
2017-12-15T02:55:30.014Z,985.02
2017-12-15T02:55:56.143Z,985.03
2017-12-15T02:56:22.256Z,985.03
2017-12-15T02:56:48.368Z,985
2017-12-15T02:57:14.480Z,985.02
2017-12-15T02:57:40.597Z,985
2017-12-15T02:58:06.711Z,985.03
2017-12-15T02:58:32.826Z,985.04
2017-12-15T02:58:58.943Z,985.04
2017-12-15T02:59:25.052Z,985.05
2017-12-15T02:59:51.171Z,985.07
2017-12-15T03:00:17.282Z,985.11
2017-12-15T03:00:43.395Z,985.11
2017-12-15T03:01:09.516Z,985.08
2017-12-15T03:01:35.651Z,985.08
2017-12-15T03:02:01.771Z,985.11
2017-12-15T03:02:27.878Z,985.12
2017-12-15T03:02:53.991Z,985.15
2017-12-15T03:03:20.110Z,985.18
2017-12-15T03:03:46.220Z,985.19
2017-12-15T03:04:12.336Z,985.18
2017-12-15T03:04:38.455Z,985.15
2017-12-15T03:05:04.588Z,985.13
2017-12-15T03:05:30.699Z,985.18
2017-12-15T03:05:56.831Z,985.16
2017-12-15T03:06:22.952Z,985.17
2017-12-15T03:06:49.071Z,985.16
2017-12-15T03:07:15.181Z,985.15
2017-12-15T03:07:41.298Z,985.16
2017-12-15T03:08:07.409Z,985.18
2017-12-15T03:08:33.526Z,985.17
2017-12-15T03:08:59.636Z,985.16
2017-12-15T03:09:25.750Z,985.22
2017-12-15T03:09:51.866Z,985.25
2017-12-15T03:10:17.997Z,985.26
2017-12-15T03:10:44.115Z,985.24
2017-12-15T03:11:10.225Z,985.28
2017-12-15T03:11:36.345Z,985.25
2017-12-15T03:12:02.461Z,985.27
2017-12-15T03:12:28.571Z,985.28
2017-12-15T03:12:54.685Z,985.29
2017-12-15T03:13:20.802Z,985.29
2017-12-15T03:13:46.915Z,985.3
2017-12-15T03:14:13.027Z,985.32
2017-12-15T03:14:39.148Z,985.31
2017-12-15T03:15:05.258Z,985.3
2017-12-15T03:15:31.374Z,985.31
2017-12-15T03:15:57.488Z,985.31
2017-12-15T03:16:23.597Z,985.32
2017-12-15T03:16:49.736Z,985.26
2017-12-15T03:17:15.850Z,985.27
2017-12-15T03:17:41.962Z,985.31
2017-12-15T03:18:08.105Z,985.3
2017-12-15T03:18:34.214Z,985.31
2017-12-15T03:19:00.328Z,985.32
2017-12-15T03:19:26.444Z,985.29
2017-12-15T03:19:52.566Z,985.3
2017-12-15T03:20:18.679Z,985.35
2017-12-15T03:20:44.809Z,985.32
2017-12-15T03:21:10.921Z,985.32
2017-12-15T03:21:37.039Z,985.33
2017-12-15T03:22:03.149Z,985.37
2017-12-15T03:22:29.267Z,985.37
2017-12-15T03:22:55.380Z,985.37
2017-12-15T03:23:21.493Z,985.35
2017-12-15T03:23:47.615Z,985.41
2017-12-15T03:24:13.734Z,985.38
2017-12-15T03:24:39.838Z,985.34
2017-12-15T03:25:05.958Z,985.41
2017-12-15T03:25:32.073Z,985.35
2017-12-15T03:25:58.185Z,985.4
2017-12-15T03:26:24.300Z,985.38
2017-12-15T03:26:50.412Z,985.42
2017-12-15T03:27:16.551Z,985.37
2017-12-15T03:27:42.669Z,985.38
2017-12-15T03:28:08.778Z,985.4
2017-12-15T03:28:34.898Z,985.42
2017-12-15T03:29:01.029Z,985.38
2017-12-15T03:29:27.142Z,985.39
2017-12-15T03:29:53.281Z,985.35
2017-12-15T03:30:19.411Z,985.43
2017-12-15T03:30:45.550Z,985.38
2017-12-15T03:31:11.664Z,985.4
2017-12-15T03:31:37.774Z,985.41
2017-12-15T03:32:03.913Z,985.44
2017-12-15T03:32:30.035Z,985.43
2017-12-15T03:32:56.142Z,985.48
2017-12-15T03:33:22.257Z,985.47
2017-12-15T03:33:48.391Z,985.44
2017-12-15T03:34:14.506Z,985.43
2017-12-15T03:34:40.618Z,985.47
2017-12-15T03:35:07.159Z,985.45
2017-12-15T03:35:33.276Z,985.52
2017-12-15T03:35:59.387Z,985.48
2017-12-15T03:36:25.507Z,985.52
2017-12-15T03:36:51.618Z,985.54
2017-12-15T03:37:17.731Z,985.51
2017-12-15T03:37:43.853Z,985.54
2017-12-15T03:38:09.965Z,985.55
2017-12-15T03:38:36.075Z,985.52
2017-12-15T03:39:02.195Z,985.54
2017-12-15T03:39:28.311Z,985.56
2017-12-15T03:39:54.425Z,985.56
2017-12-15T03:40:20.544Z,985.55
2017-12-15T03:40:46.650Z,985.56
2017-12-15T03:41:12.787Z,985.55
2017-12-15T03:41:38.902Z,985.64
2017-12-15T03:42:05.018Z,985.6
2017-12-15T03:42:31.130Z,985.59
2017-12-15T03:42:57.248Z,985.6
2017-12-15T03:43:23.417Z,985.57
2017-12-15T03:43:49.475Z,985.6
2017-12-15T03:44:15.593Z,985.56
2017-12-15T03:44:41.711Z,985.56
2017-12-15T03:45:07.850Z,985.6
2017-12-15T03:45:33.959Z,985.62
2017-12-15T03:46:00.070Z,985.62
2017-12-15T03:46:26.182Z,985.65
2017-12-15T03:46:52.294Z,985.61
2017-12-15T03:47:18.410Z,985.61
2017-12-15T03:47:44.527Z,985.66
2017-12-15T03:48:10.642Z,985.63
2017-12-15T03:48:36.750Z,985.58
2017-12-15T03:49:02.868Z,985.6
2017-12-15T03:49:28.980Z,985.65
2017-12-15T03:49:55.097Z,985.66
2017-12-15T03:50:21.208Z,985.62
2017-12-15T03:50:47.326Z,985.68
2017-12-15T03:51:13.445Z,985.66
2017-12-15T03:51:39.556Z,985.68
2017-12-15T03:52:05.676Z,985.62
2017-12-15T03:52:31.787Z,985.72
2017-12-15T03:52:57.897Z,985.67
2017-12-15T03:53:24.010Z,985.67
2017-12-15T03:53:50.123Z,985.67
2017-12-15T03:54:16.234Z,985.71
2017-12-15T03:54:42.357Z,985.69
2017-12-15T03:55:08.491Z,985.72
2017-12-15T03:55:34.610Z,985.79
2017-12-15T03:56:00.721Z,985.78
2017-12-15T03:56:26.852Z,985.79
2017-12-15T03:56:52.955Z,985.8
2017-12-15T03:57:19.066Z,985.87
2017-12-15T03:57:45.180Z,985.79
2017-12-15T03:58:11.298Z,985.8
2017-12-15T03:58:37.404Z,985.8
2017-12-15T03:59:03.540Z,985.79
2017-12-15T03:59:29.658Z,985.87
2017-12-15T03:59:55.768Z,985.82
2017-12-15T04:00:21.906Z,985.83
2017-12-15T04:00:48.023Z,985.87
2017-12-15T04:01:14.134Z,985.89
2017-12-15T04:01:40.252Z,985.82
2017-12-15T04:02:06.362Z,985.85
2017-12-15T04:02:32.472Z,985.86
2017-12-15T04:02:58.592Z,985.9
2017-12-15T04:03:24.703Z,985.87
2017-12-15T04:03:50.823Z,985.83
2017-12-15T04:04:16.938Z,985.87
2017-12-15T04:04:43.047Z,985.92
2017-12-15T04:05:09.187Z,985.87
2017-12-15T04:05:35.299Z,985.87
2017-12-15T04:06:01.415Z,985.87
2017-12-15T04:06:27.524Z,985.89
2017-12-15T04:06:53.640Z,985.9
2017-12-15T04:07:19.758Z,985.91
2017-12-15T04:07:45.867Z,985.92
2017-12-15T04:08:11.984Z,985.88
2017-12-15T04:08:38.107Z,985.91
2017-12-15T04:09:04.239Z,985.93
2017-12-15T04:09:30.347Z,985.94
2017-12-15T04:09:56.466Z,985.87
2017-12-15T04:10:22.583Z,985.96
2017-12-15T04:10:48.694Z,985.94
2017-12-15T04:11:14.802Z,985.88
2017-12-15T04:11:40.917Z,985.9
2017-12-15T04:12:07.034Z,985.88
2017-12-15T04:12:33.139Z,985.89
2017-12-15T04:12:59.257Z,985.87
2017-12-15T04:13:25.380Z,985.92
2017-12-15T04:13:51.494Z,985.92
2017-12-15T04:14:17.608Z,985.92
2017-12-15T04:14:43.725Z,985.92
2017-12-15T04:15:09.840Z,985.93
2017-12-15T04:15:35.953Z,985.9
2017-12-15T04:16:02.067Z,985.89
2017-12-15T04:16:28.186Z,985.96
2017-12-15T04:16:54.302Z,985.93
2017-12-15T04:17:20.420Z,985.93
2017-12-15T04:17:46.530Z,985.94
2017-12-15T04:18:12.636Z,986
2017-12-15T04:18:38.754Z,985.98
2017-12-15T04:19:04.863Z,985.98
2017-12-15T04:19:30.989Z,985.95
2017-12-15T04:19:57.101Z,986.03
2017-12-15T04:20:23.210Z,985.96
2017-12-15T04:20:49.329Z,985.98
2017-12-15T04:21:15.444Z,985.99
2017-12-15T04:21:41.552Z,985.98
2017-12-15T04:22:07.667Z,985.93
2017-12-15T04:22:33.788Z,985.96
2017-12-15T04:22:59.898Z,986
2017-12-15T04:23:26.014Z,985.97
2017-12-15T04:23:52.127Z,986.01
2017-12-15T04:24:18.243Z,985.99
2017-12-15T04:24:44.353Z,986.06
2017-12-15T04:25:10.468Z,986.05
2017-12-15T04:25:36.583Z,986.05
2017-12-15T04:26:02.719Z,986.02
2017-12-15T04:26:28.837Z,985.98
2017-12-15T04:26:54.948Z,986
2017-12-15T04:27:21.066Z,985.96
2017-12-15T04:27:47.179Z,986
2017-12-15T04:28:13.297Z,985.99
2017-12-15T04:28:39.408Z,986.03
2017-12-15T04:29:05.529Z,986.06
2017-12-15T04:29:31.647Z,986.04
2017-12-15T04:29:57.760Z,986.02
2017-12-15T04:30:23.893Z,986.04
2017-12-15T04:30:50.003Z,985.99
2017-12-15T04:31:16.137Z,986.03
2017-12-15T04:31:42.256Z,986.03
2017-12-15T04:32:08.367Z,986
2017-12-15T04:32:34.486Z,986.06
2017-12-15T04:33:00.603Z,986.07
2017-12-15T04:33:26.714Z,986.03
2017-12-15T04:33:52.824Z,986.05
2017-12-15T04:34:18.941Z,986.1
2017-12-15T04:34:45.057Z,986.05
2017-12-15T04:35:11.168Z,986.06
2017-12-15T04:35:37.309Z,986.08
2017-12-15T04:36:03.418Z,986.05
2017-12-15T04:36:29.536Z,986.06
2017-12-15T04:36:55.644Z,986.13
2017-12-15T04:37:21.766Z,986.08
2017-12-15T04:37:47.883Z,986.12
2017-12-15T04:38:13.992Z,986.14
2017-12-15T04:38:40.103Z,986.15
2017-12-15T04:39:06.221Z,986.16
2017-12-15T04:39:32.332Z,986.15
2017-12-15T04:39:58.446Z,986.17
2017-12-15T04:40:24.560Z,986.17
2017-12-15T04:40:50.672Z,986.2
2017-12-15T04:41:16.797Z,986.2
2017-12-15T04:41:42.915Z,986.21
2017-12-15T04:42:09.078Z,986.23
2017-12-15T04:42:35.138Z,986.22
2017-12-15T04:43:01.252Z,986.2
2017-12-15T04:43:27.361Z,986.26
2017-12-15T04:43:53.474Z,986.23
2017-12-15T04:44:19.596Z,986.24
2017-12-15T04:44:45.708Z,986.28
2017-12-15T04:45:11.820Z,986.27
2017-12-15T04:45:37.936Z,986.28
2017-12-15T04:46:04.055Z,986.31
2017-12-15T04:46:30.166Z,986.27
2017-12-15T04:46:56.306Z,986.29
2017-12-15T04:47:22.438Z,986.33
2017-12-15T04:47:48.544Z,986.39
2017-12-15T04:48:14.664Z,986.35
2017-12-15T04:48:40.797Z,986.35
2017-12-15T04:49:06.908Z,986.35
2017-12-15T04:49:33.028Z,986.44
2017-12-15T04:49:59.160Z,986.41
2017-12-15T04:50:25.294Z,986.41
2017-12-15T04:50:51.411Z,986.41
2017-12-15T04:51:17.525Z,986.41
2017-12-15T04:51:43.661Z,986.37
2017-12-15T04:52:09.770Z,986.48
2017-12-15T04:52:35.890Z,986.43
2017-12-15T04:53:02.001Z,986.4
2017-12-15T04:53:28.116Z,986.48
2017-12-15T04:53:54.256Z,986.41
2017-12-15T04:54:20.363Z,986.47
2017-12-15T04:54:46.475Z,986.48
2017-12-15T04:55:12.594Z,986.43
2017-12-15T04:55:38.709Z,986.43
2017-12-15T04:56:04.819Z,986.47
2017-12-15T04:56:30.933Z,986.53
2017-12-15T04:56:57.067Z,986.52
2017-12-15T04:57:23.176Z,986.47
2017-12-15T04:57:49.296Z,986.47
2017-12-15T04:58:15.410Z,986.49
2017-12-15T04:58:41.524Z,986.52
2017-12-15T04:59:07.659Z,986.49
2017-12-15T04:59:33.772Z,986.51
2017-12-15T04:59:59.881Z,986.49
2017-12-15T05:00:26.006Z,986.55
2017-12-15T05:00:52.119Z,986.51
2017-12-15T05:01:18.232Z,986.5
2017-12-15T05:01:44.345Z,986.5
2017-12-15T05:02:10.469Z,986.48
2017-12-15T05:02:36.587Z,986.48
2017-12-15T05:03:02.705Z,986.49
2017-12-15T05:03:28.805Z,986.51
2017-12-15T05:03:54.919Z,986.52
2017-12-15T05:04:21.031Z,986.51
2017-12-15T05:04:47.149Z,986.49
2017-12-15T05:05:13.261Z,986.46
2017-12-15T05:05:39.383Z,986.49
2017-12-15T05:06:05.506Z,986.46
2017-12-15T05:06:31.612Z,986.46
2017-12-15T05:06:57.723Z,986.44
2017-12-15T05:07:23.838Z,986.49
2017-12-15T05:07:49.955Z,986.46
2017-12-15T05:08:16.067Z,986.54
2017-12-15T05:08:42.182Z,986.53
2017-12-15T05:09:08.336Z,986.48
2017-12-15T05:09:34.467Z,986.48
2017-12-15T05:10:00.606Z,986.48
2017-12-15T05:10:26.712Z,986.44
2017-12-15T05:10:52.831Z,986.48
2017-12-15T05:11:18.949Z,986.49
2017-12-15T05:11:45.063Z,986.49
2017-12-15T05:12:11.172Z,986.52
2017-12-15T05:12:37.292Z,986.5
2017-12-15T05:13:03.403Z,986.49
2017-12-15T05:13:29.521Z,986.51
2017-12-15T05:13:55.659Z,986.46
2017-12-15T05:14:21.768Z,986.48
2017-12-15T05:14:47.887Z,986.49
2017-12-15T05:15:14.002Z,986.47
2017-12-15T05:15:40.114Z,986.52
2017-12-15T05:16:06.224Z,986.48
2017-12-15T05:16:32.343Z,986.5
2017-12-15T05:16:58.451Z,986.52
2017-12-15T05:17:24.563Z,986.52
2017-12-15T05:17:50.679Z,986.46
2017-12-15T05:18:16.791Z,986.5
2017-12-15T05:18:42.911Z,986.48
2017-12-15T05:19:09.020Z,986.54
2017-12-15T05:19:35.138Z,986.52
2017-12-15T05:20:01.251Z,986.52
2017-12-15T05:20:27.384Z,986.55
2017-12-15T05:20:53.502Z,986.56
2017-12-15T05:21:19.612Z,986.49
2017-12-15T05:21:45.726Z,986.54
2017-12-15T05:22:11.856Z,986.58
2017-12-15T05:22:37.966Z,986.54
2017-12-15T05:23:04.088Z,986.53
2017-12-15T05:23:30.201Z,986.5
2017-12-15T05:23:56.319Z,986.52
2017-12-15T05:24:22.430Z,986.54
2017-12-15T05:24:48.560Z,986.52
2017-12-15T05:25:14.692Z,986.55
2017-12-15T05:25:40.805Z,986.54
2017-12-15T05:26:06.930Z,986.49
2017-12-15T05:26:33.039Z,986.56
2017-12-15T05:26:59.183Z,986.52
2017-12-15T05:27:25.300Z,986.55